Big Horn, Wyoming
Current Conditions -  °F | °C
As of 6:53 AM on Monday 22 Dec 2014 (Local Time) from KSHR Reporting Station
Overcast Overcast  
Wind Chill: 24°   Ceiling: 9500
Heat Index: 34°   Visibility: 10mi
Dew Point: 23°   Wind: 16mph
Humidity: 64%   Direction: 310°NW
Pressure: 29.71"   Gusts: NA
Location:  44.68°N, 106.99°W
Report Text: KSHR 221353Z AUTO 31014KT 10SM SCT080 OVC095 01/M05 A2971 RMK AO2 SNB1254E03 SLP077 P0000 T00111050
Loading
Personal Weather Stations






























Interactive Weather Map New forecast layout! Learn more

10-Day Weather Forecast

Advertisements
Track Severe Weather on mobile